KQFV

Sachang

Sachang, South Korea
METAR KQFV 130700Z AUTO 29001KT 9999 FEW055 BKN075 12/02 A3010 RMK A02 TSNO
Observed Flight Rules
Nov-13 @ 07:00 UTC (11 minutes ago) Visual Flight Rules
Wind Visibility Clouds
290° at 1 knots 10,000+ meters
  • Few at 5,500' AGL
  • Broken at 7,500' AGL
Temperatures Readings
Current 12°C / 54°F
Dewpoint 2°C / 36°F
Humidity 51%
Altimeter 30.1" Hg
Pressure 1019 hPa
METAR KQFV 130700Z AUTO 29001KT 9999 FEW055 BKN075 12/02 A3010 RMK A02 TSNO
Observed Flight Rules
Nov-13 @ 07:00 UTC
(11 minutes ago)
VFR
Wind Visibility
290° at 1 knots 10,000+ meters
Clouds
  • Few at 5,500' AGL
  • Broken at 7,500' AGL
Temperature Dewpoint
12°C / 54°F 2°C / 36°F
Humidity Altimeter Pressure
51% 30.1" Hg 1019 hPa